sensor_id;sensor_type;location;lat;lon;timestamp;P1;durP1;ratioP1;P2;durP2;ratioP2
79574;SDS011;69044;48.198;11.468;2024-01-30T00:00:33;17.88;;;7.70;;
79574;SDS011;69044;48.198;11.468;2024-01-30T00:03:00;17.02;;;8.43;;
79574;SDS011;69044;48.198;11.468;2024-01-30T00:05:27;14.20;;;7.38;;
79574;SDS011;69044;48.198;11.468;2024-01-30T00:07:54;16.17;;;7.88;;
79574;SDS011;69044;48.198;11.468;2024-01-30T00:10:22;18.45;;;8.85;;
79574;SDS011;69044;48.198;11.468;2024-01-30T00:12:50;16.10;;;7.63;;
79574;SDS011;69044;48.198;11.468;2024-01-30T00:15:18;15.20;;;8.35;;
79574;SDS011;69044;48.198;11.468;2024-01-30T00:17:45;17.55;;;8.20;;
79574;SDS011;69044;48.198;11.468;2024-01-30T00:20:12;19.40;;;8.60;;
79574;SDS011;69044;48.198;11.468;2024-01-30T00:22:39;16.85;;;9.13;;
79574;SDS011;69044;48.198;11.468;2024-01-30T00:25:07;18.30;;;8.20;;
79574;SDS011;69044;48.198;11.468;2024-01-30T00:27:35;17.75;;;8.70;;
79574;SDS011;69044;48.198;11.468;2024-01-30T00:30:04;12.45;;;6.50;;
79574;SDS011;69044;48.198;11.468;2024-01-30T00:32:32;16.92;;;7.57;;
79574;SDS011;69044;48.198;11.468;2024-01-30T00:34:59;16.88;;;7.18;;
79574;SDS011;69044;48.198;11.468;2024-01-30T00:37:26;17.52;;;8.45;;
79574;SDS011;69044;48.198;11.468;2024-01-30T00:39:53;17.42;;;8.43;;
79574;SDS011;69044;48.198;11.468;2024-01-30T00:42:20;19.00;;;8.90;;
79574;SDS011;69044;48.198;11.468;2024-01-30T00:44:50;14.43;;;8.38;;
79574;SDS011;69044;48.198;11.468;2024-01-30T00:47:18;17.42;;;9.00;;
79574;SDS011;69044;48.198;11.468;2024-01-30T00:49:45;16.95;;;9.05;;
79574;SDS011;69044;48.198;11.468;2024-01-30T00:52:12;20.13;;;9.02;;
79574;SDS011;69044;48.198;11.468;2024-01-30T00:54:40;18.23;;;7.88;;
79574;SDS011;69044;48.198;11.468;2024-01-30T00:57:07;13.95;;;7.30;;
79574;SDS011;69044;48.198;11.468;2024-01-30T00:59:34;17.48;;;7.38;;
79574;SDS011;69044;48.198;11.468;2024-01-30T01:02:01;11.48;;;6.72;;
79574;SDS011;69044;48.198;11.468;2024-01-30T01:04:30;16.02;;;6.95;;
79574;SDS011;69044;48.198;11.468;2024-01-30T01:06:57;14.27;;;7.90;;
79574;SDS011;69044;48.198;11.468;2024-01-30T01:09:24;16.80;;;7.22;;
79574;SDS011;69044;48.198;11.468;2024-01-30T01:11:52;14.85;;;7.18;;
79574;SDS011;69044;48.198;11.468;2024-01-30T01:14:19;17.35;;;7.40;;
79574;SDS011;69044;48.198;11.468;2024-01-30T01:16:46;18.23;;;7.97;;
79574;SDS011;69044;48.198;11.468;2024-01-30T01:19:14;14.10;;;8.25;;
79574;SDS011;69044;48.198;11.468;2024-01-30T01:21:42;14.85;;;7.00;;
79574;SDS011;69044;48.198;11.468;2024-01-30T01:24:10;18.50;;;8.65;;
79574;SDS011;69044;48.198;11.468;2024-01-30T01:26:37;15.85;;;6.93;;
79574;SDS011;69044;48.198;11.468;2024-01-30T01:29:04;15.13;;;7.53;;
79574;SDS011;69044;48.198;11.468;2024-01-30T01:31:35;12.85;;;6.10;;
79574;SDS011;69044;48.198;11.468;2024-01-30T01:34:05;15.82;;;7.70;;
79574;SDS011;69044;48.198;11.468;2024-01-30T01:36:33;12.98;;;6.68;;
79574;SDS011;69044;48.198;11.468;2024-01-30T01:39:01;15.48;;;6.30;;
79574;SDS011;69044;48.198;11.468;2024-01-30T01:41:29;11.80;;;5.82;;
79574;SDS011;69044;48.198;11.468;2024-01-30T01:43:57;13.80;;;6.95;;
79574;SDS011;69044;48.198;11.468;2024-01-30T01:46:26;13.50;;;6.70;;
79574;SDS011;69044;48.198;11.468;2024-01-30T01:48:53;15.77;;;7.30;;
79574;SDS011;69044;48.198;11.468;2024-01-30T01:51:21;11.55;;;6.55;;
79574;SDS011;69044;48.198;11.468;2024-01-30T01:53:48;13.25;;;6.53;;
79574;SDS011;69044;48.198;11.468;2024-01-30T01:56:17;12.25;;;6.60;;
79574;SDS011;69044;48.198;11.468;2024-01-30T01:58:44;16.83;;;7.15;;
79574;SDS011;69044;48.198;11.468;2024-01-30T02:01:13;12.10;;;6.80;;
79574;SDS011;69044;48.198;11.468;2024-01-30T02:03:41;15.70;;;7.85;;
79574;SDS011;69044;48.198;11.468;2024-01-30T02:06:08;16.35;;;7.65;;
79574;SDS011;69044;48.198;11.468;2024-01-30T02:08:36;15.13;;;6.80;;
79574;SDS011;69044;48.198;11.468;2024-01-30T02:11:04;14.32;;;5.93;;
79574;SDS011;69044;48.198;11.468;2024-01-30T02:13:32;13.40;;;5.78;;
79574;SDS011;69044;48.198;11.468;2024-01-30T02:16:00;12.07;;;6.18;;
79574;SDS011;69044;48.198;11.468;2024-01-30T02:18:27;12.93;;;5.55;;
79574;SDS011;69044;48.198;11.468;2024-01-30T02:20:56;10.75;;;6.35;;
79574;SDS011;69044;48.198;11.468;2024-01-30T02:23:24;12.50;;;5.95;;
79574;SDS011;69044;48.198;11.468;2024-01-30T02:25:52;18.52;;;8.00;;
79574;SDS011;69044;48.198;11.468;2024-01-30T02:28:20;10.63;;;6.07;;
79574;SDS011;69044;48.198;11.468;2024-01-30T02:30:47;12.65;;;6.72;;
79574;SDS011;69044;48.198;11.468;2024-01-30T02:33:14;13.00;;;5.95;;
79574;SDS011;69044;48.198;11.468;2024-01-30T02:35:42;11.65;;;5.90;;
79574;SDS011;69044;48.198;11.468;2024-01-30T02:38:09;9.93;;;5.60;;
79574;SDS011;69044;48.198;11.468;2024-01-30T02:40:37;11.90;;;6.28;;
79574;SDS011;69044;48.198;11.468;2024-01-30T02:43:04;12.32;;;5.80;;
79574;SDS011;69044;48.198;11.468;2024-01-30T02:45:32;10.77;;;5.40;;
79574;SDS011;69044;48.198;11.468;2024-01-30T02:47:59;11.20;;;5.57;;
79574;SDS011;69044;48.198;11.468;2024-01-30T02:50:26;10.32;;;5.88;;
79574;SDS011;69044;48.198;11.468;2024-01-30T02:52:53;12.10;;;5.88;;
79574;SDS011;69044;48.198;11.468;2024-01-30T02:55:20;11.55;;;6.20;;
79574;SDS011;69044;48.198;11.468;2024-01-30T02:57:48;13.25;;;6.55;;
79574;SDS011;69044;48.198;11.468;2024-01-30T03:00:16;15.68;;;5.70;;
79574;SDS011;69044;48.198;11.468;2024-01-30T03:02:43;15.35;;;6.03;;
79574;SDS011;69044;48.198;11.468;2024-01-30T03:05:10;12.85;;;6.72;;
79574;SDS011;69044;48.198;11.468;2024-01-30T03:07:37;15.20;;;6.03;;
79574;SDS011;69044;48.198;11.468;2024-01-30T03:10:05;12.57;;;5.97;;
79574;SDS011;69044;48.198;11.468;2024-01-30T03:12:32;13.90;;;5.57;;
79574;SDS011;69044;48.198;11.468;2024-01-30T03:15:01;12.38;;;6.47;;
79574;SDS011;69044;48.198;11.468;2024-01-30T03:17:28;10.40;;;5.32;;
79574;SDS011;69044;48.198;11.468;2024-01-30T03:19:55;11.88;;;5.28;;
79574;SDS011;69044;48.198;11.468;2024-01-30T03:22:22;12.05;;;5.72;;
79574;SDS011;69044;48.198;11.468;2024-01-30T03:24:49;14.15;;;6.35;;
79574;SDS011;69044;48.198;11.468;2024-01-30T03:27:17;11.07;;;5.18;;
79574;SDS011;69044;48.198;11.468;2024-01-30T03:29:44;10.20;;;5.57;;
79574;SDS011;69044;48.198;11.468;2024-01-30T03:32:12;10.52;;;5.70;;
79574;SDS011;69044;48.198;11.468;2024-01-30T03:34:39;10.27;;;5.60;;
79574;SDS011;69044;48.198;11.468;2024-01-30T03:37:06;12.32;;;6.05;;
79574;SDS011;69044;48.198;11.468;2024-01-30T03:39:33;10.98;;;5.68;;
79574;SDS011;69044;48.198;11.468;2024-01-30T03:42:02;10.00;;;5.05;;
79574;SDS011;69044;48.198;11.468;2024-01-30T03:44:29;12.73;;;5.75;;
79574;SDS011;69044;48.198;11.468;2024-01-30T03:46:57;12.60;;;5.10;;
79574;SDS011;69044;48.198;11.468;2024-01-30T03:49:25;9.02;;;4.38;;
79574;SDS011;69044;48.198;11.468;2024-01-30T03:51:52;10.07;;;5.63;;
79574;SDS011;69044;48.198;11.468;2024-01-30T03:54:19;9.15;;;4.90;;
79574;SDS011;69044;48.198;11.468;2024-01-30T03:56:46;11.05;;;5.40;;
79574;SDS011;69044;48.198;11.468;2024-01-30T03:59:13;13.20;;;6.22;;
79574;SDS011;69044;48.198;11.468;2024-01-30T04:01:40;11.50;;;4.82;;
79574;SDS011;69044;48.198;11.468;2024-01-30T04:04:08;10.77;;;5.18;;
79574;SDS011;69044;48.198;11.468;2024-01-30T04:06:36;13.55;;;5.57;;
79574;SDS011;69044;48.198;11.468;2024-01-30T04:09:03;9.95;;;5.22;;
79574;SDS011;69044;48.198;11.468;2024-01-30T04:11:31;8.68;;;4.28;;
79574;SDS011;69044;48.198;11.468;2024-01-30T04:13:58;11.32;;;4.95;;
79574;SDS011;69044;48.198;11.468;2024-01-30T04:16:25;10.88;;;5.18;;
79574;SDS011;69044;48.198;11.468;2024-01-30T04:18:52;9.50;;;5.47;;
79574;SDS011;69044;48.198;11.468;2024-01-30T04:21:20;10.82;;;4.32;;
79574;SDS011;69044;48.198;11.468;2024-01-30T04:23:50;11.43;;;5.53;;
79574;SDS011;69044;48.198;11.468;2024-01-30T04:26:17;10.50;;;4.55;;
79574;SDS011;69044;48.198;11.468;2024-01-30T04:28:44;8.70;;;4.45;;
79574;SDS011;69044;48.198;11.468;2024-01-30T04:31:12;7.88;;;3.83;;
79574;SDS011;69044;48.198;11.468;2024-01-30T04:33:39;8.65;;;4.43;;
79574;SDS011;69044;48.198;11.468;2024-01-30T04:36:08;8.60;;;4.75;;
79574;SDS011;69044;48.198;11.468;2024-01-30T04:38:35;9.05;;;4.80;;
79574;SDS011;69044;48.198;11.468;2024-01-30T04:41:03;6.40;;;3.70;;
79574;SDS011;69044;48.198;11.468;2024-01-30T04:43:30;9.85;;;4.18;;
79574;SDS011;69044;48.198;11.468;2024-01-30T04:45:57;9.77;;;4.07;;
79574;SDS011;69044;48.198;11.468;2024-01-30T04:48:25;6.82;;;3.50;;
79574;SDS011;69044;48.198;11.468;2024-01-30T04:50:52;9.73;;;4.90;;
79574;SDS011;69044;48.198;11.468;2024-01-30T04:53:19;9.50;;;4.55;;
79574;SDS011;69044;48.198;11.468;2024-01-30T04:55:46;9.77;;;4.50;;
79574;SDS011;69044;48.198;11.468;2024-01-30T04:58:14;9.95;;;4.45;;
79574;SDS011;69044;48.198;11.468;2024-01-30T05:00:41;12.63;;;5.57;;
79574;SDS011;69044;48.198;11.468;2024-01-30T05:03:09;12.52;;;5.10;;
79574;SDS011;69044;48.198;11.468;2024-01-30T05:05:36;10.68;;;4.95;;
79574;SDS011;69044;48.198;11.468;2024-01-30T05:08:03;13.18;;;5.97;;
79574;SDS011;69044;48.198;11.468;2024-01-30T05:10:31;20.08;;;7.00;;
79574;SDS011;69044;48.198;11.468;2024-01-30T05:12:58;26.27;;;10.07;;
79574;SDS011;69044;48.198;11.468;2024-01-30T05:15:26;22.35;;;8.60;;
79574;SDS011;69044;48.198;11.468;2024-01-30T05:17:53;24.52;;;8.35;;
79574;SDS011;69044;48.198;11.468;2024-01-30T05:20:20;24.85;;;9.43;;
79574;SDS011;69044;48.198;11.468;2024-01-30T05:22:48;17.38;;;6.57;;
79574;SDS011;69044;48.198;11.468;2024-01-30T05:25:15;16.13;;;7.40;;
79574;SDS011;69044;48.198;11.468;2024-01-30T05:27:42;17.52;;;7.60;;
79574;SDS011;69044;48.198;11.468;2024-01-30T05:30:09;17.50;;;6.80;;
79574;SDS011;69044;48.198;11.468;2024-01-30T05:32:38;19.25;;;8.13;;
79574;SDS011;69044;48.198;11.468;2024-01-30T05:35:06;15.18;;;6.50;;
79574;SDS011;69044;48.198;11.468;2024-01-30T05:37:34;16.83;;;6.60;;
79574;SDS011;69044;48.198;11.468;2024-01-30T05:40:01;9.32;;;4.70;;
79574;SDS011;69044;48.198;11.468;2024-01-30T05:42:29;12.13;;;5.10;;
79574;SDS011;69044;48.198;11.468;2024-01-30T05:44:56;9.38;;;4.20;;
79574;SDS011;69044;48.198;11.468;2024-01-30T05:47:23;9.93;;;4.28;;
79574;SDS011;69044;48.198;11.468;2024-01-30T05:49:52;11.30;;;4.72;;
79574;SDS011;69044;48.198;11.468;2024-01-30T05:52:19;10.40;;;5.47;;
79574;SDS011;69044;48.198;11.468;2024-01-30T05:54:46;10.18;;;4.90;;
79574;SDS011;69044;48.198;11.468;2024-01-30T05:57:13;9.25;;;4.55;;
79574;SDS011;69044;48.198;11.468;2024-01-30T05:59:40;10.45;;;5.20;;
79574;SDS011;69044;48.198;11.468;2024-01-30T06:02:07;9.15;;;4.40;;
79574;SDS011;69044;48.198;11.468;2024-01-30T06:04:34;8.40;;;4.13;;
79574;SDS011;69044;48.198;11.468;2024-01-30T06:07:03;9.15;;;4.90;;
79574;SDS011;69044;48.198;11.468;2024-01-30T06:09:31;9.35;;;4.00;;
79574;SDS011;69044;48.198;11.468;2024-01-30T06:11:59;9.25;;;4.30;;
79574;SDS011;69044;48.198;11.468;2024-01-30T06:14:26;8.82;;;4.00;;
79574;SDS011;69044;48.198;11.468;2024-01-30T06:16:53;8.68;;;4.22;;
79574;SDS011;69044;48.198;11.468;2024-01-30T06:19:20;11.00;;;4.25;;
79574;SDS011;69044;48.198;11.468;2024-01-30T06:21:47;8.60;;;4.00;;
79574;SDS011;69044;48.198;11.468;2024-01-30T06:24:16;9.77;;;3.83;;
79574;SDS011;69044;48.198;11.468;2024-01-30T06:26:43;10.43;;;4.68;;
79574;SDS011;69044;48.198;11.468;2024-01-30T06:29:10;9.13;;;4.18;;
79574;SDS011;69044;48.198;11.468;2024-01-30T06:31:40;9.05;;;4.32;;
79574;SDS011;69044;48.198;11.468;2024-01-30T06:34:08;12.13;;;4.18;;
79574;SDS011;69044;48.198;11.468;2024-01-30T06:36:35;7.57;;;4.20;;
79574;SDS011;69044;48.198;11.468;2024-01-30T06:39:02;12.02;;;3.72;;
79574;SDS011;69044;48.198;11.468;2024-01-30T06:41:31;8.43;;;3.67;;
79574;SDS011;69044;48.198;11.468;2024-01-30T06:43:58;9.55;;;3.97;;
79574;SDS011;69044;48.198;11.468;2024-01-30T06:46:26;9.35;;;4.10;;
79574;SDS011;69044;48.198;11.468;2024-01-30T06:48:53;8.35;;;3.85;;
79574;SDS011;69044;48.198;11.468;2024-01-30T06:51:20;9.48;;;4.80;;
79574;SDS011;69044;48.198;11.468;2024-01-30T06:53:47;10.05;;;3.75;;
79574;SDS011;69044;48.198;11.468;2024-01-30T06:56:14;10.82;;;4.15;;
79574;SDS011;69044;48.198;11.468;2024-01-30T06:58:43;12.35;;;5.50;;
79574;SDS011;69044;48.198;11.468;2024-01-30T07:01:10;16.70;;;6.85;;
79574;SDS011;69044;48.198;11.468;2024-01-30T07:03:38;14.63;;;5.65;;
79574;SDS011;69044;48.198;11.468;2024-01-30T07:06:05;11.88;;;6.20;;
79574;SDS011;69044;48.198;11.468;2024-01-30T07:08:32;9.05;;;4.80;;
79574;SDS011;69044;48.198;11.468;2024-01-30T07:10:59;11.13;;;4.75;;
79574;SDS011;69044;48.198;11.468;2024-01-30T07:13:27;15.23;;;6.97;;
79574;SDS011;69044;48.198;11.468;2024-01-30T07:15:55;11.90;;;5.47;;
79574;SDS011;69044;48.198;11.468;2024-01-30T07:18:22;11.57;;;5.43;;
79574;SDS011;69044;48.198;11.468;2024-01-30T07:20:50;10.93;;;5.82;;
79574;SDS011;69044;48.198;11.468;2024-01-30T07:23:17;13.68;;;6.40;;
79574;SDS011;69044;48.198;11.468;2024-01-30T07:25:44;12.45;;;5.43;;
79574;SDS011;69044;48.198;11.468;2024-01-30T07:28:11;12.13;;;5.35;;
79574;SDS011;69044;48.198;11.468;2024-01-30T07:30:39;13.32;;;5.72;;
79574;SDS011;69044;48.198;11.468;2024-01-30T07:33:08;12.07;;;5.65;;
79574;SDS011;69044;48.198;11.468;2024-01-30T07:35:35;13.18;;;5.30;;
79574;SDS011;69044;48.198;11.468;2024-01-30T07:38:03;14.45;;;5.93;;
79574;SDS011;69044;48.198;11.468;2024-01-30T07:40:30;11.57;;;5.13;;
79574;SDS011;69044;48.198;11.468;2024-01-30T07:42:58;13.25;;;4.65;;
79574;SDS011;69044;48.198;11.468;2024-01-30T07:45:26;10.00;;;5.20;;
79574;SDS011;69044;48.198;11.468;2024-01-30T07:47:58;10.45;;;5.13;;
79574;SDS011;69044;48.198;11.468;2024-01-30T07:50:26;12.98;;;5.10;;
79574;SDS011;69044;48.198;11.468;2024-01-30T07:52:55;14.75;;;4.53;;
79574;SDS011;69044;48.198;11.468;2024-01-30T07:55:22;11.07;;;5.65;;
79574;SDS011;69044;48.198;11.468;2024-01-30T07:57:53;9.90;;;4.38;;
79574;SDS011;69044;48.198;11.468;2024-01-30T08:00:20;13.75;;;4.72;;
79574;SDS011;69044;48.198;11.468;2024-01-30T08:02:48;14.15;;;5.85;;
79574;SDS011;69044;48.198;11.468;2024-01-30T08:05:15;11.88;;;5.68;;
79574;SDS011;69044;48.198;11.468;2024-01-30T08:07:43;15.50;;;6.03;;
79574;SDS011;69044;48.198;11.468;2024-01-30T08:12:38;8.52;;;3.70;;
79574;SDS011;69044;48.198;11.468;2024-01-30T08:15:06;15.85;;;5.30;;
79574;SDS011;69044;48.198;11.468;2024-01-30T08:17:33;9.55;;;4.03;;
79574;SDS011;69044;48.198;11.468;2024-01-30T08:20:01;10.35;;;4.63;;
79574;SDS011;69044;48.198;11.468;2024-01-30T08:22:30;11.40;;;4.45;;
79574;SDS011;69044;48.198;11.468;2024-01-30T08:24:58;10.65;;;4.93;;
79574;SDS011;69044;48.198;11.468;2024-01-30T08:29:53;12.35;;;4.90;;
79574;SDS011;69044;48.198;11.468;2024-01-30T08:32:20;23.80;;;8.27;;
79574;SDS011;69044;48.198;11.468;2024-01-30T08:34:47;25.85;;;9.85;;
79574;SDS011;69044;48.198;11.468;2024-01-30T08:37:14;12.43;;;7.32;;
79574;SDS011;69044;48.198;11.468;2024-01-30T08:39:42;16.70;;;6.00;;
79574;SDS011;69044;48.198;11.468;2024-01-30T08:42:11;15.90;;;7.00;;
79574;SDS011;69044;48.198;11.468;2024-01-30T08:44:39;10.68;;;6.03;;
79574;SDS011;69044;48.198;11.468;2024-01-30T08:47:06;14.07;;;7.25;;
79574;SDS011;69044;48.198;11.468;2024-01-30T08:49:33;11.35;;;4.50;;
79574;SDS011;69044;48.198;11.468;2024-01-30T08:52:00;7.82;;;4.35;;
79574;SDS011;69044;48.198;11.468;2024-01-30T08:54:27;14.10;;;6.53;;
79574;SDS011;69044;48.198;11.468;2024-01-30T08:56:54;12.20;;;5.53;;
79574;SDS011;69044;48.198;11.468;2024-01-30T08:59:25;11.23;;;4.97;;
79574;SDS011;69044;48.198;11.468;2024-01-30T09:01:52;10.32;;;4.95;;
79574;SDS011;69044;48.198;11.468;2024-01-30T09:04:20;14.23;;;6.05;;
79574;SDS011;69044;48.198;11.468;2024-01-30T09:06:48;7.75;;;4.60;;
79574;SDS011;69044;48.198;11.468;2024-01-30T09:09:15;10.57;;;4.90;;
79574;SDS011;69044;48.198;11.468;2024-01-30T09:11:43;9.65;;;4.80;;
79574;SDS011;69044;48.198;11.468;2024-01-30T09:14:10;11.13;;;4.32;;
79574;SDS011;69044;48.198;11.468;2024-01-30T09:16:39;9.38;;;4.55;;
79574;SDS011;69044;48.198;11.468;2024-01-30T09:19:06;8.65;;;3.72;;
79574;SDS011;69044;48.198;11.468;2024-01-30T09:21:33;9.15;;;5.03;;
79574;SDS011;69044;48.198;11.468;2024-01-30T09:24:01;8.80;;;4.80;;
79574;SDS011;69044;48.198;11.468;2024-01-30T09:26:29;11.35;;;5.30;;
79574;SDS011;69044;48.198;11.468;2024-01-30T09:28:57;10.75;;;5.13;;
79574;SDS011;69044;48.198;11.468;2024-01-30T09:31:24;10.60;;;5.57;;
79574;SDS011;69044;48.198;11.468;2024-01-30T09:33:52;15.95;;;5.93;;
79574;SDS011;69044;48.198;11.468;2024-01-30T09:36:20;16.73;;;5.72;;
79574;SDS011;69044;48.198;11.468;2024-01-30T09:38:47;18.85;;;5.68;;
79574;SDS011;69044;48.198;11.468;2024-01-30T09:41:14;14.30;;;5.93;;
79574;SDS011;69044;48.198;11.468;2024-01-30T09:43:42;13.57;;;5.88;;
79574;SDS011;69044;48.198;11.468;2024-01-30T09:46:15;14.38;;;6.03;;
79574;SDS011;69044;48.198;11.468;2024-01-30T09:48:43;13.02;;;5.57;;
79574;SDS011;69044;48.198;11.468;2024-01-30T09:51:14;10.00;;;4.32;;
79574;SDS011;69044;48.198;11.468;2024-01-30T09:53:42;12.48;;;4.93;;
79574;SDS011;69044;48.198;11.468;2024-01-30T09:56:10;13.98;;;5.30;;
79574;SDS011;69044;48.198;11.468;2024-01-30T09:58:37;9.80;;;4.32;;
79574;SDS011;69044;48.198;11.468;2024-01-30T10:01:05;8.98;;;4.47;;
79574;SDS011;69044;48.198;11.468;2024-01-30T10:03:32;13.68;;;4.88;;
79574;SDS011;69044;48.198;11.468;2024-01-30T10:05:59;10.70;;;4.50;;
79574;SDS011;69044;48.198;11.468;2024-01-30T10:08:29;9.88;;;3.83;;
79574;SDS011;69044;48.198;11.468;2024-01-30T10:10:56;6.43;;;3.15;;
79574;SDS011;69044;48.198;11.468;2024-01-30T10:13:23;8.82;;;3.53;;
79574;SDS011;69044;48.198;11.468;2024-01-30T10:15:52;7.38;;;3.28;;
79574;SDS011;69044;48.198;11.468;2024-01-30T10:18:22;8.90;;;3.65;;
79574;SDS011;69044;48.198;11.468;2024-01-30T10:20:49;6.78;;;3.60;;
79574;SDS011;69044;48.198;11.468;2024-01-30T10:23:16;6.95;;;3.70;;
79574;SDS011;69044;48.198;11.468;2024-01-30T10:25:46;7.55;;;3.97;;
79574;SDS011;69044;48.198;11.468;2024-01-30T10:28:13;9.95;;;3.80;;
79574;SDS011;69044;48.198;11.468;2024-01-30T10:30:40;9.88;;;4.00;;
79574;SDS011;69044;48.198;11.468;2024-01-30T10:33:07;9.40;;;3.85;;
79574;SDS011;69044;48.198;11.468;2024-01-30T10:35:35;7.72;;;3.17;;
79574;SDS011;69044;48.198;11.468;2024-01-30T10:38:02;7.35;;;3.30;;
79574;SDS011;69044;48.198;11.468;2024-01-30T10:40:30;5.78;;;3.42;;
79574;SDS011;69044;48.198;11.468;2024-01-30T10:42:59;11.48;;;3.47;;
79574;SDS011;69044;48.198;11.468;2024-01-30T10:45:28;9.30;;;3.65;;
79574;SDS011;69044;48.198;11.468;2024-01-30T10:48:08;9.30;;;2.97;;
79574;SDS011;69044;48.198;11.468;2024-01-30T10:50:36;7.78;;;3.45;;
79574;SDS011;69044;48.198;11.468;2024-01-30T10:53:03;8.93;;;3.63;;
79574;SDS011;69044;48.198;11.468;2024-01-30T10:55:30;8.30;;;2.97;;
79574;SDS011;69044;48.198;11.468;2024-01-30T10:57:59;7.10;;;3.10;;
79574;SDS011;69044;48.198;11.468;2024-01-30T11:00:27;7.97;;;2.55;;
79574;SDS011;69044;48.198;11.468;2024-01-30T11:02:54;5.03;;;2.80;;
79574;SDS011;69044;48.198;11.468;2024-01-30T11:05:24;5.22;;;2.50;;
79574;SDS011;69044;48.198;11.468;2024-01-30T11:07:52;4.78;;;2.17;;
79574;SDS011;69044;48.198;11.468;2024-01-30T11:10:19;7.80;;;2.40;;
79574;SDS011;69044;48.198;11.468;2024-01-30T11:12:47;6.95;;;2.28;;
79574;SDS011;69044;48.198;11.468;2024-01-30T11:15:17;4.95;;;2.25;;
79574;SDS011;69044;48.198;11.468;2024-01-30T11:17:45;4.97;;;2.00;;
79574;SDS011;69044;48.198;11.468;2024-01-30T11:20:19;5.13;;;2.28;;
79574;SDS011;69044;48.198;11.468;2024-01-30T11:22:47;9.02;;;2.38;;
79574;SDS011;69044;48.198;11.468;2024-01-30T11:25:16;5.15;;;2.38;;
79574;SDS011;69044;48.198;11.468;2024-01-30T11:27:44;7.07;;;3.47;;
79574;SDS011;69044;48.198;11.468;2024-01-30T11:32:59;4.78;;;2.60;;
79574;SDS011;69044;48.198;11.468;2024-01-30T11:35:32;7.35;;;3.70;;
79574;SDS011;69044;48.198;11.468;2024-01-30T11:40:27;5.70;;;2.72;;
79574;SDS011;69044;48.198;11.468;2024-01-30T11:42:54;5.05;;;2.72;;
79574;SDS011;69044;48.198;11.468;2024-01-30T11:45:23;3.38;;;2.15;;
79574;SDS011;69044;48.198;11.468;2024-01-30T11:47:50;4.97;;;2.35;;
79574;SDS011;69044;48.198;11.468;2024-01-30T11:50:17;8.38;;;2.70;;
79574;SDS011;69044;48.198;11.468;2024-01-30T11:52:44;16.30;;;6.50;;
79574;SDS011;69044;48.198;11.468;2024-01-30T11:55:12;6.72;;;3.05;;
79574;SDS011;69044;48.198;11.468;2024-01-30T11:57:40;5.60;;;2.85;;
79574;SDS011;69044;48.198;11.468;2024-01-30T12:00:13;10.20;;;2.90;;
79574;SDS011;69044;48.198;11.468;2024-01-30T12:02:42;7.55;;;2.65;;
79574;SDS011;69044;48.198;11.468;2024-01-30T12:07:36;4.65;;;2.47;;
79574;SDS011;69044;48.198;11.468;2024-01-30T12:10:04;5.68;;;2.65;;
79574;SDS011;69044;48.198;11.468;2024-01-30T12:12:33;5.50;;;2.05;;
79574;SDS011;69044;48.198;11.468;2024-01-30T12:15:00;3.10;;;2.20;;
79574;SDS011;69044;48.198;11.468;2024-01-30T12:17:28;5.82;;;2.42;;
79574;SDS011;69044;48.198;11.468;2024-01-30T12:20:06;8.13;;;2.45;;
79574;SDS011;69044;48.198;11.468;2024-01-30T12:22:38;4.15;;;2.03;;
79574;SDS011;69044;48.198;11.468;2024-01-30T12:25:07;3.25;;;2.20;;
79574;SDS011;69044;48.198;11.468;2024-01-30T12:30:04;2.60;;;1.70;;
79574;SDS011;69044;48.198;11.468;2024-01-30T12:32:34;2.97;;;1.75;;
79574;SDS011;69044;48.198;11.468;2024-01-30T12:35:01;3.22;;;2.05;;
79574;SDS011;69044;48.198;11.468;2024-01-30T12:37:30;4.88;;;2.20;;
79574;SDS011;69044;48.198;11.468;2024-01-30T12:39:58;4.90;;;2.70;;
79574;SDS011;69044;48.198;11.468;2024-01-30T12:42:26;12.65;;;4.82;;
79574;SDS011;69044;48.198;11.468;2024-01-30T12:44:53;13.00;;;5.00;;
79574;SDS011;69044;48.198;11.468;2024-01-30T12:47:21;15.57;;;5.55;;
79574;SDS011;69044;48.198;11.468;2024-01-30T12:49:48;11.85;;;5.22;;
79574;SDS011;69044;48.198;11.468;2024-01-30T12:52:19;14.18;;;4.63;;
79574;SDS011;69044;48.198;11.468;2024-01-30T12:54:48;7.30;;;3.00;;
79574;SDS011;69044;48.198;11.468;2024-01-30T12:57:15;8.57;;;4.10;;
79574;SDS011;69044;48.198;11.468;2024-01-30T12:59:43;7.95;;;3.22;;
79574;SDS011;69044;48.198;11.468;2024-01-30T13:02:10;6.28;;;2.63;;
79574;SDS011;69044;48.198;11.468;2024-01-30T13:04:37;4.53;;;2.40;;
79574;SDS011;69044;48.198;11.468;2024-01-30T13:07:04;12.45;;;3.80;;
79574;SDS011;69044;48.198;11.468;2024-01-30T13:09:31;28.35;;;10.73;;
79574;SDS011;69044;48.198;11.468;2024-01-30T13:12:00;17.65;;;5.40;;
79574;SDS011;69044;48.198;11.468;2024-01-30T13:14:27;5.25;;;2.88;;
79574;SDS011;69044;48.198;11.468;2024-01-30T13:16:54;3.90;;;2.08;;
79574;SDS011;69044;48.198;11.468;2024-01-30T13:19:21;4.00;;;2.22;;
79574;SDS011;69044;48.198;11.468;2024-01-30T13:21:49;4.63;;;2.05;;
79574;SDS011;69044;48.198;11.468;2024-01-30T13:24:16;3.85;;;1.80;;
79574;SDS011;69044;48.198;11.468;2024-01-30T13:26:46;3.50;;;1.90;;
79574;SDS011;69044;48.198;11.468;2024-01-30T13:29:15;5.03;;;2.25;;
79574;SDS011;69044;48.198;11.468;2024-01-30T13:34:11;5.03;;;1.98;;
79574;SDS011;69044;48.198;11.468;2024-01-30T13:36:39;4.63;;;1.88;;
79574;SDS011;69044;48.198;11.468;2024-01-30T13:39:06;8.45;;;2.53;;
79574;SDS011;69044;48.198;11.468;2024-01-30T13:41:35;5.88;;;2.30;;
79574;SDS011;69044;48.198;11.468;2024-01-30T13:44:02;4.57;;;2.55;;
79574;SDS011;69044;48.198;11.468;2024-01-30T13:46:31;5.13;;;2.45;;
79574;SDS011;69044;48.198;11.468;2024-01-30T13:51:25;6.03;;;2.60;;
79574;SDS011;69044;48.198;11.468;2024-01-30T13:53:52;5.00;;;2.72;;
79574;SDS011;69044;48.198;11.468;2024-01-30T13:56:19;7.15;;;2.75;;
79574;SDS011;69044;48.198;11.468;2024-01-30T13:58:47;4.70;;;2.70;;
79574;SDS011;69044;48.198;11.468;2024-01-30T14:01:15;4.38;;;2.80;;
79574;SDS011;69044;48.198;11.468;2024-01-30T14:03:44;5.78;;;2.22;;
79574;SDS011;69044;48.198;11.468;2024-01-30T14:11:05;3.95;;;2.30;;
79574;SDS011;69044;48.198;11.468;2024-01-30T14:13:32;8.73;;;2.70;;
79574;SDS011;69044;48.198;11.468;2024-01-30T14:16:00;8.30;;;3.60;;
79574;SDS011;69044;48.198;11.468;2024-01-30T14:18:27;5.72;;;3.00;;
79574;SDS011;69044;48.198;11.468;2024-01-30T14:20:55;5.95;;;2.90;;
79574;SDS011;69044;48.198;11.468;2024-01-30T14:23:23;8.75;;;4.45;;
79574;SDS011;69044;48.198;11.468;2024-01-30T14:25:50;9.30;;;4.13;;
79574;SDS011;69044;48.198;11.468;2024-01-30T14:28:17;6.45;;;3.25;;
79574;SDS011;69044;48.198;11.468;2024-01-30T14:30:44;7.93;;;3.40;;
79574;SDS011;69044;48.198;11.468;2024-01-30T14:33:11;17.17;;;3.40;;
79574;SDS011;69044;48.198;11.468;2024-01-30T14:35:39;12.52;;;3.65;;
79574;SDS011;69044;48.198;11.468;2024-01-30T14:38:07;13.27;;;5.45;;
79574;SDS011;69044;48.198;11.468;2024-01-30T14:40:35;15.60;;;5.85;;
79574;SDS011;69044;48.198;11.468;2024-01-30T14:43:02;8.02;;;3.88;;
79574;SDS011;69044;48.198;11.468;2024-01-30T14:45:30;9.93;;;3.55;;
79574;SDS011;69044;48.198;11.468;2024-01-30T14:47:58;11.40;;;3.22;;
79574;SDS011;69044;48.198;11.468;2024-01-30T14:50:25;9.38;;;3.22;;
79574;SDS011;69044;48.198;11.468;2024-01-30T14:52:52;8.75;;;3.00;;